createdAt,value
2023-01-03T00:00:57.119Z,17.93
2023-01-03T00:03:26.685Z,18.60
2023-01-03T00:06:01.483Z,18.37
2023-01-03T00:08:34.068Z,19.50
2023-01-03T00:11:02.139Z,17.83
2023-01-03T00:13:29.198Z,18.00
2023-01-03T00:16:00.415Z,17.43
2023-01-03T00:18:28.534Z,18.90
2023-01-03T00:21:04.652Z,17.80
2023-01-03T00:23:35.899Z,18.73
2023-01-03T00:26:10.229Z,17.63
2023-01-03T00:28:41.089Z,17.20
2023-01-03T00:31:09.702Z,18.50
2023-01-03T00:33:38.745Z,17.67
2023-01-03T00:36:10.852Z,18.07
2023-01-03T00:38:39.697Z,17.30
2023-01-03T00:41:09.376Z,17.80
2023-01-03T00:43:38.442Z,17.37
2023-01-03T00:46:07.748Z,18.20
2023-01-03T00:48:38.578Z,17.90
2023-01-03T00:51:09.309Z,18.37
2023-01-03T00:53:38.753Z,18.20
2023-01-03T00:56:08.319Z,18.57
2023-01-03T00:58:39.243Z,18.03
2023-01-03T01:01:10.239Z,17.80
2023-01-03T01:03:40.467Z,18.10
2023-01-03T01:06:22.249Z,18.23
2023-01-03T01:08:52.053Z,19.73
2023-01-03T01:11:23.802Z,19.37
2023-01-03T01:13:52.372Z,18.90
2023-01-03T01:16:24.629Z,19.77
2023-01-03T01:18:54.607Z,20.27
2023-01-03T01:21:29.043Z,20.13
2023-01-03T01:24:00.189Z,19.50
2023-01-03T01:26:30.598Z,19.07
2023-01-03T01:28:58.843Z,19.43
2023-01-03T01:31:28.770Z,20.30
2023-01-03T01:33:58.408Z,20.10
2023-01-03T01:36:30.399Z,20.57
2023-01-03T01:39:03.161Z,21.23
2023-01-03T01:41:51.877Z,21.63
2023-01-03T01:44:46.831Z,21.73
2023-01-03T01:47:21.432Z,23.03
2023-01-03T01:49:54.193Z,23.73
2023-01-03T01:52:25.039Z,23.57
2023-01-03T01:54:59.754Z,23.37
2023-01-03T01:57:28.626Z,21.63
2023-01-03T01:59:58.843Z,21.17
2023-01-03T02:02:28.504Z,20.33
2023-01-03T02:04:57.959Z,20.00
2023-01-03T02:07:34.335Z,19.63
2023-01-03T02:10:03.064Z,19.57
2023-01-03T02:12:57.026Z,21.43
2023-01-03T02:15:36.618Z,21.53
2023-01-03T02:18:21.735Z,21.57
2023-01-03T02:21:19.990Z,22.50
2023-01-03T02:24:15.037Z,25.93
2023-01-03T02:27:02.349Z,24.27
2023-01-03T02:30:05.512Z,22.53
2023-01-03T02:32:44.281Z,22.47
2023-01-03T02:35:22.997Z,22.23
2023-01-03T02:37:57.379Z,23.23
2023-01-03T02:40:35.832Z,24.00
2023-01-03T02:43:10.288Z,22.07
2023-01-03T02:46:00.225Z,25.00
2023-01-03T02:48:38.947Z,25.30
2023-01-03T02:51:12.808Z,27.40
2023-01-03T02:53:45.337Z,24.83
2023-01-03T02:56:16.970Z,26.17
2023-01-03T02:58:49.601Z,26.93
2023-01-03T03:01:19.988Z,25.03
2023-01-03T03:03:53.744Z,27.37
2023-01-03T03:06:28.917Z,26.53
2023-01-03T03:08:57.177Z,26.03
2023-01-03T03:11:46.597Z,25.37
2023-01-03T03:14:22.526Z,25.80
2023-01-03T03:16:53.721Z,25.40
2023-01-03T03:19:47.188Z,24.43
2023-01-03T03:22:48.577Z,25.57
2023-01-03T03:25:24.441Z,25.30
2023-01-03T03:28:12.961Z,26.77
2023-01-03T03:30:43.414Z,25.27
2023-01-03T03:33:15.122Z,24.93
2023-01-03T03:35:48.790Z,24.27
2023-01-03T03:38:24.541Z,24.83
2023-01-03T03:41:29.384Z,24.07
2023-01-03T03:44:23.312Z,24.03
2023-01-03T03:47:04.118Z,25.67
2023-01-03T03:49:41.173Z,26.00
2023-01-03T03:52:16.300Z,25.63
2023-01-03T03:54:52.063Z,28.07
2023-01-03T03:57:26.100Z,26.50
2023-01-03T03:59:58.511Z,27.70
2023-01-03T04:02:29.350Z,27.80
2023-01-03T04:05:02.349Z,28.30
2023-01-03T04:07:32.005Z,29.13
2023-01-03T04:10:03.002Z,28.23
2023-01-03T04:12:31.192Z,29.97
2023-01-03T04:14:59.399Z,29.73
2023-01-03T04:17:27.540Z,29.90
2023-01-03T04:19:55.713Z,31.47
2023-01-03T04:22:23.846Z,30.67
2023-01-03T04:24:56.827Z,31.97
2023-01-03T04:27:26.386Z,31.43
2023-01-03T04:29:54.639Z,32.20
2023-01-03T04:32:22.949Z,31.00
2023-01-03T04:34:54.166Z,32.27
2023-01-03T04:37:22.495Z,32.40
2023-01-03T04:39:50.710Z,31.30
2023-01-03T04:42:39.042Z,31.70
2023-01-03T04:45:12.834Z,30.83
2023-01-03T04:47:41.301Z,29.57
2023-01-03T04:50:11.016Z,32.13
2023-01-03T04:52:39.748Z,30.80
2023-01-03T04:55:09.711Z,29.63
2023-01-03T04:57:41.572Z,31.27
2023-01-03T05:00:11.954Z,31.17
2023-01-03T05:02:40.657Z,31.10
2023-01-03T05:05:12.577Z,30.57
2023-01-03T05:07:43.899Z,30.13
2023-01-03T05:10:12.338Z,31.27
2023-01-03T05:12:41.920Z,30.83
2023-01-03T05:15:11.156Z,31.37
2023-01-03T05:17:39.229Z,31.20
2023-01-03T05:20:25.678Z,29.97
2023-01-03T05:23:11.037Z,32.23
2023-01-03T05:25:51.500Z,29.60
2023-01-03T05:28:24.057Z,29.63
2023-01-03T05:30:52.312Z,29.93
2023-01-03T05:33:22.448Z,29.80
2023-01-03T05:35:53.498Z,29.63
2023-01-03T05:38:22.562Z,31.47
2023-01-03T05:40:51.028Z,32.77
2023-01-03T05:43:20.701Z,30.73
2023-01-03T05:45:52.779Z,29.53
2023-01-03T05:48:24.228Z,31.53
2023-01-03T05:50:52.349Z,30.37
2023-01-03T05:53:21.577Z,29.67
2023-01-03T05:55:49.773Z,30.17
2023-01-03T05:58:17.913Z,29.97
2023-01-03T06:00:47.553Z,29.07
2023-01-03T06:03:15.895Z,29.23
2023-01-03T06:05:50.124Z,29.77
2023-01-03T06:08:20.794Z,30.03
2023-01-03T06:10:49.001Z,29.77
2023-01-03T06:13:17.183Z,30.27
2023-01-03T06:16:05.527Z,30.03
2023-01-03T06:18:34.985Z,28.87
2023-01-03T06:21:04.156Z,30.60
2023-01-03T06:23:32.255Z,29.20
2023-01-03T06:26:04.407Z,28.63
2023-01-03T06:28:33.054Z,30.47
2023-01-03T06:31:01.491Z,29.57
2023-01-03T06:33:29.616Z,29.77
2023-01-03T06:36:02.750Z,31.60
2023-01-03T06:38:32.852Z,28.77
2023-01-03T06:41:01.282Z,29.40
2023-01-03T06:43:31.716Z,28.00
2023-01-03T06:46:18.816Z,27.97
2023-01-03T06:49:05.147Z,28.73
2023-01-03T06:52:08.216Z,24.43
2023-01-03T06:54:37.701Z,22.77
2023-01-03T06:57:09.022Z,23.83
2023-01-03T06:59:36.984Z,24.17
2023-01-03T07:02:07.058Z,23.90
2023-01-03T07:04:35.207Z,23.70
2023-01-03T07:07:08.941Z,23.87
2023-01-03T07:09:39.160Z,21.67
2023-01-03T07:12:21.211Z,22.43
2023-01-03T07:14:49.277Z,22.23
2023-01-03T07:17:18.036Z,22.80
2023-01-03T07:19:49.601Z,23.30
2023-01-03T07:22:19.262Z,23.60
2023-01-03T07:24:47.386Z,23.13
2023-01-03T07:27:15.607Z,22.50
2023-01-03T07:29:43.638Z,22.70
2023-01-03T07:32:11.825Z,23.60
2023-01-03T07:34:39.867Z,23.50
2023-01-03T07:37:08.925Z,23.83
2023-01-03T07:39:41.144Z,23.67
2023-01-03T07:42:27.201Z,23.27
2023-01-03T07:45:05.456Z,22.80
2023-01-03T07:47:33.762Z,24.10
2023-01-03T07:50:02.145Z,23.03
2023-01-03T07:52:32.182Z,24.60
2023-01-03T07:55:02.060Z,24.47
2023-01-03T07:57:33.342Z,23.97
2023-01-03T08:00:04.562Z,25.00
2023-01-03T08:02:32.856Z,24.87
2023-01-03T08:05:04.704Z,24.50
2023-01-03T08:07:33.083Z,24.20
2023-01-03T08:10:19.936Z,26.03
2023-01-03T08:13:05.332Z,26.53
2023-01-03T08:15:33.660Z,25.67
2023-01-03T08:18:04.107Z,25.63
2023-01-03T08:20:32.437Z,26.60
2023-01-03T08:23:02.681Z,25.90
2023-01-03T08:25:34.779Z,25.17
2023-01-03T08:28:03.287Z,24.90
2023-01-03T08:30:32.255Z,25.50
2023-01-03T08:33:10.475Z,25.63
2023-01-03T08:35:40.697Z,24.53
2023-01-03T08:38:15.334Z,26.20
2023-01-03T08:40:47.832Z,25.83
2023-01-03T08:43:19.305Z,26.50
2023-01-03T08:45:49.115Z,27.40
2023-01-03T08:48:20.257Z,26.10
2023-01-03T08:50:49.976Z,25.63
2023-01-03T08:53:23.247Z,26.23
2023-01-03T08:55:52.729Z,25.93
2023-01-03T08:58:21.246Z,26.37
2023-01-03T09:00:49.479Z,26.27
2023-01-03T09:03:18.304Z,27.00
2023-01-03T09:05:46.648Z,27.37
2023-01-03T09:08:15.955Z,28.07
2023-01-03T09:10:47.490Z,26.50
2023-01-03T09:13:23.041Z,25.42
2023-01-03T09:15:54.280Z,26.23
2023-01-03T09:18:22.691Z,26.13
2023-01-03T09:20:52.998Z,26.60
2023-01-03T09:23:21.282Z,25.98
2023-01-03T09:25:53.727Z,25.77
2023-01-03T09:28:23.767Z,26.83
2023-01-03T09:30:51.999Z,25.80
2023-01-03T09:33:20.343Z,26.98
2023-01-03T09:35:50.650Z,25.65
2023-01-03T09:38:18.965Z,26.05
2023-01-03T09:40:50.462Z,26.27
2023-01-03T09:43:25.425Z,25.83
2023-01-03T09:45:58.671Z,26.83
2023-01-03T09:48:31.683Z,26.27
2023-01-03T09:51:21.085Z,26.60
2023-01-03T09:54:05.822Z,27.47
2023-01-03T09:56:51.360Z,26.02
2023-01-03T09:59:36.889Z,27.92
2023-01-03T10:02:37.923Z,25.13
2023-01-03T10:05:21.885Z,26.43
2023-01-03T10:08:03.452Z,26.52
2023-01-03T10:10:38.425Z,26.55
2023-01-03T10:13:20.282Z,26.45
2023-01-03T10:16:00.099Z,26.30
2023-01-03T10:19:00.229Z,26.75
2023-01-03T10:21:37.669Z,26.20
2023-01-03T10:24:18.927Z,26.45
2023-01-03T10:26:49.680Z,24.60
2023-01-03T10:29:20.114Z,26.33
2023-01-03T10:32:07.012Z,26.20
2023-01-03T10:34:39.054Z,26.23
2023-01-03T10:37:20.191Z,27.50
2023-01-03T10:39:50.067Z,26.83
2023-01-03T10:42:19.971Z,27.10
2023-01-03T10:45:02.708Z,27.15
2023-01-03T10:47:31.001Z,27.17
2023-01-03T10:50:06.648Z,27.80
2023-01-03T10:52:38.649Z,27.92
2023-01-03T10:55:14.432Z,26.40
2023-01-03T10:57:46.377Z,25.77
2023-01-03T11:00:27.192Z,25.52
2023-01-03T11:02:59.400Z,26.67
2023-01-03T11:05:31.926Z,25.60
2023-01-03T11:08:02.897Z,26.38
2023-01-03T11:10:38.121Z,24.23
2023-01-03T11:13:24.247Z,25.25
2023-01-03T11:15:55.607Z,24.23
2023-01-03T11:18:25.499Z,24.30
2023-01-03T11:21:02.913Z,24.58
2023-01-03T11:24:02.498Z,24.05
2023-01-03T11:26:48.646Z,23.85
2023-01-03T11:29:40.355Z,22.23
2023-01-03T11:32:24.826Z,22.58
2023-01-03T11:35:24.544Z,22.30
2023-01-03T11:38:03.837Z,22.10
2023-01-03T11:40:41.041Z,21.10
2023-01-03T11:43:26.655Z,21.30
2023-01-03T11:46:18.508Z,21.73
2023-01-03T11:48:59.641Z,21.58
2023-01-03T11:51:37.009Z,22.17
2023-01-03T11:54:34.194Z,21.02
2023-01-03T11:57:11.443Z,22.02
2023-01-03T11:59:57.908Z,21.90
2023-01-03T12:02:57.183Z,21.60
2023-01-03T12:05:44.464Z,20.63
2023-01-03T12:08:48.028Z,21.73
2023-01-03T12:11:32.982Z,21.00
2023-01-03T12:14:09.053Z,21.73
2023-01-03T12:16:45.261Z,21.73
2023-01-03T12:19:26.622Z,21.08
2023-01-03T12:22:00.120Z,21.63
2023-01-03T12:24:37.177Z,21.38
2023-01-03T12:27:13.283Z,19.95
2023-01-03T12:29:50.378Z,20.17
2023-01-03T12:32:23.602Z,20.48
2023-01-03T12:34:57.818Z,21.25
2023-01-03T12:37:30.999Z,21.38
2023-01-03T12:40:02.696Z,19.75
2023-01-03T12:42:39.254Z,20.52
2023-01-03T12:45:34.008Z,21.55
2023-01-03T12:48:09.850Z,21.02
2023-01-03T12:50:44.106Z,20.15
2023-01-03T12:53:18.817Z,18.77
2023-01-03T12:56:01.103Z,19.90
2023-01-03T12:58:41.881Z,20.33
2023-01-03T13:01:15.815Z,19.73
2023-01-03T13:03:49.022Z,20.08
2023-01-03T13:06:21.819Z,19.90
2023-01-03T13:08:54.564Z,20.05
2023-01-03T13:11:27.407Z,20.50
2023-01-03T13:14:00.296Z,19.63
2023-01-03T13:16:46.299Z,18.80
2023-01-03T13:19:51.553Z,18.80
2023-01-03T13:22:58.118Z,19.75
2023-01-03T13:25:47.142Z,19.70
2023-01-03T13:28:33.121Z,19.45
2023-01-03T13:31:47.978Z,20.15
2023-01-03T13:34:33.493Z,19.70
2023-01-03T13:37:17.996Z,19.83
2023-01-03T13:40:14.375Z,19.45
2023-01-03T13:42:42.693Z,18.77
2023-01-03T13:45:56.930Z,19.17
2023-01-03T13:48:53.531Z,18.63
2023-01-03T13:51:36.953Z,19.40
2023-01-03T13:54:25.883Z,19.88
2023-01-03T13:57:04.159Z,20.63
2023-01-03T13:59:37.310Z,19.92
2023-01-03T14:02:44.615Z,19.95
2023-01-03T14:05:31.969Z,20.15
2023-01-03T14:08:33.366Z,19.50
2023-01-03T14:11:31.258Z,20.08
2023-01-03T14:14:05.953Z,20.70
2023-01-03T14:16:46.773Z,19.60
2023-01-03T14:19:22.819Z,20.55
2023-01-03T14:21:56.864Z,20.88
2023-01-03T14:24:29.708Z,21.10
2023-01-03T14:27:13.066Z,19.80
2023-01-03T14:29:50.361Z,20.48
2023-01-03T14:32:22.568Z,20.10
2023-01-03T14:34:51.252Z,21.92
2023-01-03T14:37:22.313Z,20.95
2023-01-03T14:39:56.751Z,22.00
2023-01-03T14:42:26.262Z,21.33
2023-01-03T14:44:57.833Z,21.15
2023-01-03T14:47:33.301Z,20.25
2023-01-03T14:50:02.311Z,20.55
2023-01-03T14:52:34.014Z,20.95
2023-01-03T14:55:07.521Z,20.75
2023-01-03T14:57:40.424Z,20.50
2023-01-03T15:00:13.526Z,20.08
2023-01-03T15:02:43.380Z,21.33
2023-01-03T15:05:26.332Z,21.30
2023-01-03T15:07:54.735Z,20.02
2023-01-03T15:10:32.825Z,21.10
2023-01-03T15:13:04.899Z,20.02
2023-01-03T15:15:38.457Z,20.52
2023-01-03T15:18:09.943Z,20.98
2023-01-03T15:20:40.469Z,20.63
2023-01-03T15:23:09.541Z,20.83
2023-01-03T15:25:42.301Z,21.02
2023-01-03T15:28:23.837Z,20.45
2023-01-03T15:30:53.064Z,21.27
2023-01-03T15:33:33.226Z,20.58
2023-01-03T15:36:06.302Z,20.65
2023-01-03T15:38:36.332Z,20.00
2023-01-03T15:41:39.513Z,20.20
2023-01-03T15:44:08.423Z,19.98
2023-01-03T15:46:36.888Z,19.30
2023-01-03T15:49:06.972Z,20.08
2023-01-03T15:51:35.109Z,20.00
2023-01-03T15:54:03.684Z,19.80
2023-01-03T15:56:38.935Z,19.60
2023-01-03T15:59:14.466Z,20.10
2023-01-03T16:01:43.004Z,21.08
2023-01-03T16:04:11.953Z,19.88
2023-01-03T16:06:40.106Z,19.42
2023-01-03T16:09:08.294Z,19.33
2023-01-03T16:11:38.246Z,19.75
2023-01-03T16:14:09.478Z,19.88
2023-01-03T16:16:41.442Z,20.20
2023-01-03T16:19:20.767Z,19.52
2023-01-03T16:22:09.452Z,18.05
2023-01-03T16:24:37.903Z,18.02
2023-01-03T16:27:15.100Z,18.05
2023-01-03T16:29:43.865Z,17.77
2023-01-03T16:32:19.812Z,17.50
2023-01-03T16:34:49.359Z,18.45
2023-01-03T16:37:22.347Z,18.30
2023-01-03T16:39:50.750Z,17.08
2023-01-03T16:42:27.468Z,17.67
2023-01-03T16:44:57.162Z,17.52
2023-01-03T16:47:28.971Z,17.40
2023-01-03T16:50:00.830Z,18.00
2023-01-03T16:52:34.170Z,17.45
2023-01-03T16:55:05.510Z,18.23
2023-01-03T16:57:35.297Z,17.85
2023-01-03T17:00:04.764Z,18.05
2023-01-03T17:02:35.324Z,18.27
2023-01-03T17:05:03.891Z,19.27
2023-01-03T17:07:32.234Z,19.17
2023-01-03T17:10:00.880Z,20.10
2023-01-03T17:12:29.145Z,18.23
2023-01-03T17:14:58.839Z,18.80
2023-01-03T17:17:29.160Z,19.38
2023-01-03T17:20:06.894Z,19.65
2023-01-03T17:22:35.265Z,19.90
2023-01-03T17:25:03.859Z,19.25
2023-01-03T17:27:33.559Z,19.38
2023-01-03T17:30:06.500Z,18.48
2023-01-03T17:32:35.413Z,19.08
2023-01-03T17:35:08.077Z,19.38
2023-01-03T17:38:05.750Z,19.98
2023-01-03T17:40:33.659Z,19.88
2023-01-03T17:43:03.054Z,19.25
2023-01-03T17:45:50.225Z,55.75
2023-01-03T17:48:35.622Z,97.25
2023-01-03T17:51:06.275Z,24.17
2023-01-03T17:53:34.466Z,20.70
2023-01-03T17:56:02.973Z,20.42
2023-01-03T17:58:34.258Z,20.48
2023-01-03T18:01:04.286Z,20.15
2023-01-03T18:03:35.375Z,19.88
2023-01-03T18:06:07.516Z,20.15
2023-01-03T18:08:40.537Z,19.95
2023-01-03T18:11:10.035Z,20.77
2023-01-03T18:13:39.041Z,19.98
2023-01-03T18:16:17.556Z,20.35
2023-01-03T18:18:46.399Z,20.85
2023-01-03T18:21:18.908Z,20.52
2023-01-03T18:23:47.519Z,20.40
2023-01-03T18:26:19.941Z,21.73
2023-01-03T18:28:48.188Z,21.48
2023-01-03T18:31:20.000Z,21.13
2023-01-03T18:33:49.255Z,21.77
2023-01-03T18:36:26.281Z,21.30
2023-01-03T18:39:04.501Z,20.85
2023-01-03T18:41:34.485Z,21.02
2023-01-03T18:44:02.881Z,21.58
2023-01-03T18:46:32.737Z,21.08
2023-01-03T18:49:00.844Z,21.38
2023-01-03T18:51:30.448Z,22.08
2023-01-03T18:54:00.030Z,21.00
2023-01-03T18:56:33.746Z,21.27
2023-01-03T18:59:06.166Z,21.02
2023-01-03T19:01:36.265Z,20.60
2023-01-03T19:04:04.636Z,20.27
2023-01-03T19:06:34.069Z,20.73
2023-01-03T19:09:04.188Z,21.42
2023-01-03T19:11:35.920Z,21.08
2023-01-03T19:14:07.717Z,21.40
2023-01-03T19:16:38.933Z,20.80
2023-01-03T19:19:08.141Z,21.67
2023-01-03T19:21:38.237Z,21.77
2023-01-03T19:24:13.224Z,21.20
2023-01-03T19:26:45.317Z,21.05
2023-01-03T19:29:21.969Z,20.55
2023-01-03T19:31:57.242Z,21.17
2023-01-03T19:34:27.516Z,21.10
2023-01-03T19:36:55.825Z,20.40
2023-01-03T19:39:26.211Z,21.30
2023-01-03T19:42:15.442Z,20.60
2023-01-03T19:44:44.121Z,20.15
2023-01-03T19:47:16.197Z,20.92
2023-01-03T19:49:47.263Z,20.13
2023-01-03T19:52:15.769Z,20.40
2023-01-03T19:54:43.948Z,19.58
2023-01-03T19:57:20.468Z,20.50
2023-01-03T19:59:52.559Z,20.65
2023-01-03T20:02:36.387Z,21.00
2023-01-03T20:05:08.507Z,20.67
2023-01-03T20:07:37.209Z,20.70
2023-01-03T20:10:05.745Z,20.85
2023-01-03T20:12:35.328Z,20.52
2023-01-03T20:15:07.186Z,20.25
2023-01-03T20:17:36.945Z,20.40
2023-01-03T20:20:05.630Z,20.70
2023-01-03T20:25:26.935Z,20.70
2023-01-03T20:27:56.097Z,20.02
2023-01-03T20:30:26.607Z,20.52
2023-01-03T20:32:56.561Z,19.92
2023-01-03T20:38:16.943Z,16.65
2023-01-03T20:40:45.233Z,19.83
2023-01-03T20:43:17.319Z,19.83
2023-01-03T20:45:46.796Z,20.13
2023-01-03T20:48:24.771Z,19.55
2023-01-03T20:50:53.926Z,20.08
2023-01-03T20:53:24.066Z,19.63
2023-01-03T20:55:53.673Z,21.23
2023-01-03T20:58:25.341Z,20.38
2023-01-03T21:00:59.828Z,20.80
2023-01-03T21:03:37.126Z,20.30
2023-01-03T21:06:18.815Z,20.20
2023-01-03T21:08:56.562Z,20.23
2023-01-03T21:11:27.432Z,20.27
2023-01-03T21:13:56.687Z,20.30
2023-01-03T21:16:31.655Z,20.67
2023-01-03T21:19:06.957Z,20.45
2023-01-03T21:21:35.916Z,20.10
2023-01-03T21:24:04.462Z,21.08
2023-01-03T21:26:33.738Z,21.33
2023-01-03T21:29:02.666Z,19.92
2023-01-03T21:31:31.000Z,20.50
2023-01-03T21:33:59.209Z,20.80
2023-01-03T21:36:31.324Z,20.83
2023-01-03T21:39:00.332Z,20.55
2023-01-03T21:41:30.511Z,20.52
2023-01-03T21:43:59.778Z,20.67
2023-01-03T21:46:28.730Z,20.13
2023-01-03T21:48:58.207Z,20.95
2023-01-03T21:51:38.445Z,20.55
2023-01-03T21:54:08.667Z,20.95
2023-01-03T21:56:45.635Z,20.83
2023-01-03T21:59:14.938Z,21.00
2023-01-03T22:02:02.171Z,21.27
2023-01-03T22:04:30.760Z,21.40
2023-01-03T22:07:02.072Z,21.13
2023-01-03T22:09:49.743Z,21.15
2023-01-03T22:12:18.194Z,21.13
2023-01-03T22:14:46.786Z,21.23
2023-01-03T22:17:15.398Z,18.77
2023-01-03T22:19:43.717Z,19.85
2023-01-03T22:22:13.658Z,19.20
2023-01-03T22:24:41.860Z,19.40
2023-01-03T22:27:10.164Z,19.45
2023-01-03T22:29:38.224Z,19.40
2023-01-03T22:32:06.851Z,19.70
2023-01-03T22:34:35.038Z,19.60
2023-01-03T22:37:03.233Z,20.35
2023-01-03T22:39:32.856Z,19.88
2023-01-03T22:42:00.947Z,19.63
2023-01-03T22:44:29.151Z,19.75
2023-01-03T22:46:57.405Z,20.15
2023-01-03T22:49:25.453Z,20.35
2023-01-03T22:51:53.428Z,20.05
2023-01-03T22:54:21.537Z,20.70
2023-01-03T22:56:51.718Z,20.02
2023-01-03T22:59:19.895Z,20.23
2023-01-03T23:01:48.004Z,19.73
2023-01-03T23:04:20.640Z,19.35
2023-01-03T23:06:48.810Z,19.30
2023-01-03T23:09:17.041Z,18.60
2023-01-03T23:12:07.453Z,19.02
2023-01-03T23:14:37.141Z,19.55
2023-01-03T23:17:19.387Z,19.08
2023-01-03T23:19:47.774Z,18.40
2023-01-03T23:22:16.080Z,18.00
2023-01-03T23:24:44.089Z,17.70
2023-01-03T23:27:12.139Z,18.15
2023-01-03T23:29:41.776Z,17.58
2023-01-03T23:32:10.002Z,17.52
2023-01-03T23:34:38.325Z,17.15
2023-01-03T23:37:06.478Z,17.60
2023-01-03T23:39:35.293Z,17.40
2023-01-03T23:42:03.376Z,17.48
2023-01-03T23:44:32.794Z,16.95
2023-01-03T23:47:07.660Z,16.40
2023-01-03T23:49:39.359Z,16.10
2023-01-03T23:52:10.216Z,15.93
2023-01-03T23:54:38.319Z,15.95
2023-01-03T23:57:09.083Z,16.45
2023-01-03T23:59:37.235Z,15.57
